Terminal Aerodrome Forecast
Issued by NWS

Home | Current Version | Previous Version | Text Only | Print | Product List | Glossary On
Versions: 1 2 3 4 5 6 7 8 9 10 11 12 13 14
000
FTUS45 KVEF 281100
TAFBIH
TAF
KBIH 281138Z 2812/2912 VRB05KT P6SM VCSH SCT100 BKN140
     FM281800 16011KT P6SM VCTS SCT080CB OVC140
      TEMPO 2820/2824 VRB20G30KT 4SM TSRA BKN060CB
     FM290200 16007KT P6SM VCSH BKN100 OVC150=

USA.gov is the U.S. government's official web portal to all federal, state and local government web resources and services.